Time;durP1;ratioP1;P1;durP2;ratioP2;P2;SDS_P1;SDS_P2;PMS_P1;PMS_P2;Temp;Humidity;BMP_temperature;BMP_pressure;BME280_temperature;BME280_humidity;BME280_pressure;Samples;Min_cycle;Max_cycle;Signal;HPM_P1;HPM_P2
2023/01/17 00:01:56;;;;;;;8.63;2.75;;;3.40;99.90;;;;;;5045349;28;20108;-66
2023/01/17 00:09:57;;;;;;;3.58;2.38;;;3.40;99.90;;;;;;5053699;28;20118;-66
2023/01/17 00:12:30;;;;;;;6.13;2.92;;;3.40;99.90;;;;;;5053760;28;20021;-66
2023/01/17 00:14:57;;;;;;;8.57;2.95;;;3.40;99.90;;;;;;5054759;28;20111;-66
2023/01/17 00:17:25;;;;;;;5.53;2.75;;;3.40;99.90;;;;;;5053936;28;20455;-66
2023/01/17 01:34:56;;;;;;;8.68;5.85;;;3.50;99.90;;;;;;5052728;28;20028;-66
2023/01/17 01:37:21;;;;;;;8.65;5.93;;;3.50;99.90;;;;;;5052928;28;20025;-66
2023/01/17 01:39:47;;;;;;;8.70;5.60;;;3.50;99.90;;;;;;5052729;28;20543;-66
2023/01/17 01:42:14;;;;;;;8.70;5.50;;;3.50;99.90;;;;;;5053035;28;20388;-66
2023/01/17 01:44:54;;;;;;;7.72;5.55;;;3.40;99.90;;;;;;5053184;28;20071;-66
2023/01/17 01:47:36;;;;;;;9.90;6.80;;;3.40;99.90;;;;;;5052516;28;20028;-66
2023/01/17 01:50:06;;;;;;;10.38;6.47;;;3.40;99.90;;;;;;5052797;28;20396;-66
2023/01/17 01:52:34;;;;;;;12.20;6.03;;;3.40;99.90;;;;;;5052630;28;20055;-66
2023/01/17 01:55:04;;;;;;;12.23;6.00;;;3.40;99.90;;;;;;5052926;28;20025;-66
2023/01/17 01:57:37;;;;;;;10.35;6.68;;;3.30;99.90;;;;;;5054317;28;20047;-66
2023/01/17 02:00:10;;;;;;;9.18;6.32;;;3.30;99.90;;;;;;5056830;28;20017;-66
2023/01/17 02:02:36;;;;;;;6.95;5.40;;;3.30;99.90;;;;;;5056459;28;20391;-66
2023/01/17 02:05:02;;;;;;;9.32;5.90;;;3.30;99.90;;;;;;5056375;28;20037;-66
2023/01/17 02:07:35;;;;;;;7.18;5.97;;;3.30;99.90;;;;;;5056304;28;20030;-66
2023/01/17 02:10:02;;;;;;;7.80;6.18;;;3.20;99.90;;;;;;5056120;28;20040;-66
2023/01/17 02:12:28;;;;;;;8.85;6.25;;;3.10;99.90;;;;;;5038217;28;20029;-66
2023/01/17 02:14:53;;;;;;;8.63;5.93;;;3.10;99.90;;;;;;5036215;28;20022;-66
2023/01/17 02:17:19;;;;;;;8.82;6.15;;;3.00;99.90;;;;;;5036455;28;20531;-66
2023/01/17 02:20:03;;;;;;;7.10;5.30;;;2.90;99.90;;;;;;5055371;28;20043;-66
2023/01/17 02:22:54;;;;;;;12.13;6.30;;;2.80;99.90;;;;;;5056022;28;20116;-65
2023/01/17 02:25:41;;;;;;;12.40;5.93;;;2.80;99.90;;;;;;5054761;28;20079;-66
2023/01/17 02:28:40;;;;;;;9.00;6.35;;;2.70;99.90;;;;;;5053995;28;20017;-66
2023/01/17 02:31:44;;;;;;;17.65;5.90;;;2.60;99.90;;;;;;5036146;28;20025;-66
2023/01/17 02:34:18;;;;;;;7.45;5.80;;;2.60;99.90;;;;;;5029269;28;20022;-65
2023/01/17 02:37:10;;;;;;;7.53;5.60;;;2.50;99.90;;;;;;5016109;28;20117;-65
2023/01/17 02:39:43;;;;;;;9.80;5.53;;;2.40;99.90;;;;;;5015547;28;20038;-66
2023/01/17 02:42:15;;;;;;;7.67;5.60;;;2.30;99.90;;;;;;5021734;28;20642;-65
2023/01/17 02:44:42;;;;;;;7.90;5.65;;;2.30;99.90;;;;;;5016317;28;20073;-66
2023/01/17 02:47:27;;;;;;;9.75;5.75;;;2.20;99.90;;;;;;5015827;28;20037;-65
2023/01/17 02:50:01;;;;;;;7.82;5.85;;;2.20;99.90;;;;;;5016242;28;20023;-65
2023/01/17 02:53:08;;;;;;;7.47;5.50;;;2.10;99.90;;;;;;5016122;28;20025;-65
2023/01/17 02:55:51;;;;;;;7.78;5.82;;;1.90;99.90;;;;;;5015487;28;20139;-65
2023/01/17 02:58:27;;;;;;;8.00;6.45;;;1.90;99.90;;;;;;5016041;28;20057;-65
2023/01/17 03:01:39;;;;;;;8.95;5.93;;;1.80;99.90;;;;;;5052552;28;20053;-66
2023/01/17 03:04:23;;;;;;;8.65;6.28;;;1.70;99.90;;;;;;5054847;28;20033;-66
2023/01/17 03:06:53;;;;;;;8.50;6.70;;;1.70;99.90;;;;;;5055566;28;20063;-65
2023/01/17 03:09:19;;;;;;;7.53;6.53;;;1.70;99.90;;;;;;5054899;28;20072;-65
2023/01/17 03:11:45;;;;;;;7.70;5.97;;;1.60;99.90;;;;;;5055072;28;20072;-66
2023/01/17 03:14:11;;;;;;;9.77;7.38;;;1.70;99.90;;;;;;5055188;28;20060;-66
2023/01/17 03:16:37;;;;;;;10.48;6.75;;;1.60;99.90;;;;;;5055273;28;20074;-65
2023/01/17 03:19:03;;;;;;;10.82;7.70;;;1.60;99.90;;;;;;5054825;28;20018;-65
2023/01/17 03:21:28;;;;;;;13.52;8.20;;;1.60;99.90;;;;;;5055266;28;20025;-65
2023/01/17 03:23:54;;;;;;;12.18;8.85;;;1.60;99.90;;;;;;5054969;28;20087;-66
2023/01/17 03:26:20;;;;;;;10.68;7.30;;;1.70;99.90;;;;;;5054732;28;20078;-66
2023/01/17 03:28:45;;;;;;;9.55;7.68;;;1.70;99.90;;;;;;5055452;28;20464;-65
2023/01/17 03:31:15;;;;;;;11.38;8.77;;;1.70;99.90;;;;;;5062133;23;20048;-65
2023/01/17 03:33:41;;;;;;;9.10;7.40;;;1.70;99.90;;;;;;5054923;28;20485;-65
2023/01/17 03:36:06;;;;;;;14.05;8.90;;;1.70;99.90;;;;;;5054598;28;20063;-65
2023/01/17 03:38:32;;;;;;;11.23;8.10;;;1.70;99.90;;;;;;5054590;28;20100;-66
2023/01/17 03:40:57;;;;;;;11.50;8.05;;;1.70;99.90;;;;;;5070396;28;20037;-65
2023/01/17 03:43:23;;;;;;;12.90;8.27;;;1.70;99.90;;;;;;5075086;28;20047;-66
2023/01/17 03:45:50;;;;;;;12.00;8.60;;;1.70;99.90;;;;;;5074490;28;20032;-65
2023/01/17 03:48:17;;;;;;;11.60;8.23;;;1.80;99.90;;;;;;5074694;28;20056;-65
2023/01/17 03:50:42;;;;;;;14.57;9.52;;;1.70;99.90;;;;;;5074523;28;20078;-65
2023/01/17 03:53:08;;;;;;;12.63;9.68;;;1.70;99.90;;;;;;5065025;28;20029;-65
2023/01/17 03:55:33;;;;;;;20.58;9.63;;;1.80;99.90;;;;;;5054356;28;20021;-65
2023/01/17 03:57:59;;;;;;;12.55;9.45;;;1.80;99.90;;;;;;5056263;28;20044;-65
2023/01/17 04:00:24;;;;;;;14.70;9.90;;;1.80;99.90;;;;;;5054556;28;20029;-66
2023/01/17 04:02:50;;;;;;;19.30;10.52;;;1.80;99.90;;;;;;5054144;28;20033;-65
2023/01/17 04:05:15;;;;;;;13.55;10.27;;;1.70;99.90;;;;;;5073543;28;20504;-65
2023/01/17 04:07:41;;;;;;;15.45;9.80;;;1.70;99.90;;;;;;5074386;28;20492;-65
2023/01/17 04:10:07;;;;;;;16.13;10.82;;;1.80;99.90;;;;;;5073823;28;20090;-65
2023/01/17 04:12:33;;;;;;;15.05;10.70;;;1.80;99.90;;;;;;5074247;28;20024;-65
2023/01/17 04:14:58;;;;;;;14.75;10.77;;;1.80;99.90;;;;;;5073636;28;20024;-65
2023/01/17 04:17:24;;;;;;;17.42;11.32;;;1.80;99.90;;;;;;5074302;28;20024;-65
2023/01/17 04:19:50;;;;;;;15.02;11.55;;;1.80;99.90;;;;;;5073217;28;20040;-66
2023/01/17 04:22:15;;;;;;;17.17;10.90;;;1.80;99.90;;;;;;5073746;28;20024;-65
2023/01/17 04:24:41;;;;;;;18.30;11.75;;;1.90;99.90;;;;;;5073982;28;20024;-65
2023/01/17 04:27:06;;;;;;;17.38;11.63;;;1.90;99.90;;;;;;5073686;28;20028;-65
2023/01/17 04:29:32;;;;;;;16.60;11.88;;;1.90;99.90;;;;;;5073426;28;20032;-65
2023/01/17 04:31:58;;;;;;;17.83;11.65;;;1.90;99.90;;;;;;5073859;28;20032;-65
2023/01/17 04:34:23;;;;;;;20.55;13.27;;;1.90;99.90;;;;;;5073539;28;20028;-65
2023/01/17 04:36:49;;;;;;;17.98;13.07;;;2.00;99.90;;;;;;5073541;28;20314;-65
2023/01/17 04:39:14;;;;;;;18.88;12.38;;;2.00;99.90;;;;;;5073513;28;20025;-65
2023/01/17 04:41:40;;;;;;;17.88;13.32;;;2.00;99.90;;;;;;5073300;28;20392;-65
2023/01/17 04:44:05;;;;;;;18.38;11.52;;;2.00;99.90;;;;;;5066498;28;20032;-65
2023/01/17 04:46:31;;;;;;;19.88;13.52;;;2.00;99.90;;;;;;5073198;28;20032;-65
2023/01/17 04:48:57;;;;;;;23.08;14.43;;;2.10;99.90;;;;;;5073200;28;20021;-66
2023/01/17 04:51:23;;;;;;;21.30;13.98;;;2.10;99.90;;;;;;5073066;28;20365;-65
2023/01/17 04:53:48;;;;;;;22.02;13.68;;;2.10;99.90;;;;;;5073348;28;20078;-65
2023/01/17 04:56:14;;;;;;;20.92;14.35;;;2.10;99.90;;;;;;5073191;28;20024;-65
2023/01/17 04:58:39;;;;;;;18.40;13.27;;;2.10;99.90;;;;;;5073287;28;20079;-65
2023/01/17 05:01:07;;;;;;;20.55;14.73;;;2.10;99.90;;;;;;5073274;28;20564;-65
2023/01/17 05:03:33;;;;;;;26.58;16.17;;;2.10;99.90;;;;;;5073019;28;20476;-66
2023/01/17 05:05:59;;;;;;;21.85;14.20;;;2.10;99.90;;;;;;5073176;28;20111;-65
2023/01/17 05:08:24;;;;;;;22.58;15.23;;;2.10;99.90;;;;;;5073151;28;20533;-66
2023/01/17 05:10:50;;;;;;;25.13;16.13;;;2.10;99.90;;;;;;5073233;28;20024;-66
2023/01/17 05:13:16;;;;;;;25.00;16.23;;;2.10;99.90;;;;;;5073227;28;20020;-66
2023/01/17 05:15:42;;;;;;;23.45;16.42;;;2.10;99.90;;;;;;5070891;28;20025;-66
2023/01/17 05:18:17;;;;;;;19.10;14.57;;;2.10;99.90;;;;;;5071048;28;20016;-65
2023/01/17 05:20:42;;;;;;;23.70;16.20;;;2.10;99.90;;;;;;5073387;28;20121;-65
2023/01/17 05:23:09;;;;;;;25.35;15.73;;;2.20;99.90;;;;;;5068631;28;20029;-65
2023/01/17 05:25:35;;;;;;;27.27;17.45;;;2.20;99.90;;;;;;5073033;28;20028;-65
2023/01/17 05:28:01;;;;;;;27.92;17.95;;;2.20;99.90;;;;;;5073210;28;20491;-66
2023/01/17 05:30:31;;;;;;;25.80;18.35;;;2.20;99.90;;;;;;5057199;28;20412;-66
2023/01/17 05:32:57;;;;;;;26.20;17.65;;;2.20;99.90;;;;;;5055413;28;20033;-65
2023/01/17 05:35:31;;;;;;;28.98;19.55;;;2.20;99.90;;;;;;5059021;28;20033;-66
2023/01/17 05:37:57;;;;;;;25.60;18.05;;;2.30;99.90;;;;;;5057210;28;20040;-65
2023/01/17 05:40:25;;;;;;;28.25;18.98;;;2.30;99.90;;;;;;5064754;28;20091;-65
2023/01/17 05:42:54;;;;;;;29.10;19.25;;;2.30;99.90;;;;;;5076913;28;20035;-65
2023/01/17 05:45:21;;;;;;;31.85;21.67;;;2.40;99.90;;;;;;5076756;28;20031;-65
2023/01/17 05:47:49;;;;;;;36.40;21.58;;;2.40;99.90;;;;;;5076598;28;20119;-65
2023/01/17 05:50:20;;;;;;;33.70;20.85;;;2.50;99.90;;;;;;5076508;28;20024;-65
2023/01/17 05:52:54;;;;;;;34.88;22.85;;;2.60;99.90;;;;;;5076612;28;20024;-65
2023/01/17 05:55:21;;;;;;;32.30;20.73;;;2.60;99.90;;;;;;5076648;28;20028;-65
2023/01/17 05:57:46;;;;;;;25.75;16.45;;;2.70;99.90;;;;;;5076781;28;20103;-65
2023/01/17 06:00:13;;;;;;;19.55;10.90;;;2.70;99.90;;;;;;5076677;28;20060;-65
2023/01/17 06:02:39;;;;;;;37.40;19.05;;;2.70;99.90;;;;;;5076532;28;20025;-66
2023/01/17 06:05:05;;;;;;;27.00;13.63;;;2.90;99.90;;;;;;5076417;28;20029;-65
2023/01/17 06:07:30;;;;;;;23.83;7.65;;;2.90;99.90;;;;;;5076245;28;20066;-65
2023/01/17 06:09:56;;;;;;;18.33;8.20;;;2.90;99.90;;;;;;5076147;28;20035;-65
2023/01/17 06:12:21;;;;;;;25.77;7.75;;;3.00;99.90;;;;;;5076783;28;20025;-65
2023/01/17 06:14:47;;;;;;;11.85;5.70;;;3.00;99.90;;;;;;5076540;28;20036;-65
2023/01/17 06:17:12;;;;;;;6.68;3.30;;;3.00;99.90;;;;;;5076002;28;20025;-65
2023/01/17 06:19:38;;;;;;;6.60;3.08;;;2.70;99.90;;;;;;5076000;28;20070;-65
2023/01/17 06:22:04;;;;;;;7.80;2.92;;;2.50;99.90;;;;;;5076382;28;20031;-65
2023/01/17 06:24:29;;;;;;;14.65;5.00;;;2.30;99.90;;;;;;5076042;28;20029;-65
2023/01/17 06:26:56;;;;;;;11.43;4.15;;;2.10;99.90;;;;;;5075751;28;20031;-65
2023/01/17 06:29:21;;;;;;;14.32;4.65;;;2.00;99.90;;;;;;5070309;28;20044;-65
2023/01/17 06:31:47;;;;;;;11.23;4.80;;;1.90;99.90;;;;;;5056431;28;20036;-65
2023/01/17 06:34:12;;;;;;;24.05;2.72;;;1.70;99.90;;;;;;5058016;28;20083;-65
2023/01/17 06:36:38;;;;;;;17.48;3.72;;;1.60;99.90;;;;;;5056137;28;20047;-64
2023/01/17 06:39:03;;;;;;;10.52;2.40;;;1.70;99.90;;;;;;5062070;28;20503;-64
2023/01/17 06:41:29;;;;;;;13.20;2.13;;;1.80;99.90;;;;;;5076599;28;20029;-65
2023/01/17 06:43:55;;;;;;;24.70;4.45;;;1.80;99.90;;;;;;5075258;28;20476;-65
2023/01/17 06:46:21;;;;;;;9.77;3.22;;;1.90;99.90;;;;;;5075720;28;20040;-65
2023/01/17 06:48:47;;;;;;;19.52;4.10;;;1.90;99.90;;;;;;5076001;28;20388;-65
2023/01/17 06:51:13;;;;;;;23.10;3.97;;;2.00;99.90;;;;;;5075660;28;20024;-65
2023/01/17 06:53:39;;;;;;;24.38;3.50;;;2.00;99.90;;;;;;5075626;28;20025;-65
2023/01/17 06:56:05;;;;;;;19.95;4.05;;;2.00;99.90;;;;;;5075464;28;20024;-65
2023/01/17 06:58:30;;;;;;;19.15;3.85;;;2.00;99.90;;;;;;5075482;28;20021;-65
2023/01/17 07:00:56;;;;;;;23.30;3.08;;;2.00;99.90;;;;;;5075434;28;20032;-66
2023/01/17 07:03:25;;;;;;;17.48;2.08;;;2.00;99.90;;;;;;5076170;28;20024;-65
2023/01/17 07:05:52;;;;;;;11.60;3.47;;;1.80;99.90;;;;;;5076081;28;20029;-65
2023/01/17 07:08:18;;;;;;;7.82;2.30;;;1.80;99.90;;;;;;5075553;28;20029;-66
2023/01/17 07:10:45;;;;;;;27.98;2.85;;;1.70;99.90;;;;;;5075237;28;20029;-65
2023/01/17 07:13:12;;;;;;;15.82;1.33;;;1.70;99.90;;;;;;5075621;28;20020;-65
2023/01/17 07:15:37;;;;;;;21.13;4.05;;;1.70;99.90;;;;;;5075301;28;20025;-65
2023/01/17 07:18:03;;;;;;;14.57;2.97;;;1.80;99.90;;;;;;5075221;28;20024;-66
2023/01/17 07:20:29;;;;;;;9.48;1.83;;;1.80;99.90;;;;;;5075370;28;20107;-65
2023/01/17 07:22:55;;;;;;;15.77;3.63;;;1.90;99.90;;;;;;5074961;28;20025;-66
2023/01/17 07:25:20;;;;;;;13.27;3.08;;;1.80;99.90;;;;;;5075118;28;20054;-66
2023/01/17 07:27:46;;;;;;;33.70;5.50;;;1.90;99.90;;;;;;5075235;28;20050;-66
2023/01/17 07:30:12;;;;;;;19.77;4.70;;;1.80;99.90;;;;;;5073854;28;20526;-66
2023/01/17 07:32:38;;;;;;;29.65;3.78;;;1.80;99.90;;;;;;5075284;28;20024;-66
2023/01/17 07:35:04;;;;;;;33.28;4.05;;;1.70;99.90;;;;;;5073635;28;20099;-66
2023/01/17 07:37:30;;;;;;;20.25;3.50;;;1.80;99.90;;;;;;5073461;28;20029;-66
2023/01/17 07:39:55;;;;;;;25.00;3.38;;;1.80;99.90;;;;;;5067283;28;20027;-66
2023/01/17 07:42:21;;;;;;;14.32;3.00;;;1.80;99.90;;;;;;5054994;28;20029;-66
2023/01/17 07:44:47;;;;;;;15.70;2.60;;;1.90;99.90;;;;;;5055108;28;20029;-66
2023/01/17 07:47:12;;;;;;;20.50;4.68;;;1.90;99.90;;;;;;5073085;28;20020;-66
2023/01/17 07:49:38;;;;;;;42.50;6.63;;;2.00;99.90;;;;;;5074578;28;20028;-66
2023/01/17 07:52:07;;;;;;;21.98;3.08;;;2.00;99.90;;;;;;5074650;28;20035;-66
2023/01/17 07:54:33;;;;;;;33.30;4.43;;;2.00;99.90;;;;;;5073642;28;20021;-66
2023/01/17 07:56:58;;;;;;;14.18;3.72;;;2.10;99.90;;;;;;5089890;28;20510;-66
2023/01/17 07:59:24;;;;;;;23.20;3.42;;;2.10;99.90;;;;;;5074632;28;20376;-66
2023/01/17 08:01:49;;;;;;;28.58;4.32;;;2.10;99.90;;;;;;5074310;28;20044;-66
2023/01/17 08:04:15;;;;;;;29.13;3.50;;;2.20;99.90;;;;;;5073090;28;20031;-66
2023/01/17 08:06:46;;;;;;;28.20;3.40;;;2.20;99.90;;;;;;5074814;28;20036;-66
2023/01/17 08:09:12;;;;;;;29.08;6.50;;;2.20;99.90;;;;;;5069133;28;20028;-66
2023/01/17 08:11:37;;;;;;;27.98;3.85;;;2.30;99.90;;;;;;5073163;28;20029;-66
2023/01/17 08:14:03;;;;;;;24.42;4.25;;;2.30;99.90;;;;;;5073841;28;20031;-66
2023/01/17 08:16:29;;;;;;;21.23;3.40;;;2.30;99.90;;;;;;5073879;28;20031;-66
2023/01/17 08:18:55;;;;;;;35.15;5.20;;;2.40;99.90;;;;;;5064410;28;20504;-66
2023/01/17 08:21:21;;;;;;;35.25;4.95;;;2.40;99.90;;;;;;5054186;28;20028;-66
2023/01/17 08:23:51;;;;;;;31.67;3.95;;;2.40;99.90;;;;;;5059175;28;20032;-66
2023/01/17 08:26:21;;;;;;;28.80;4.47;;;2.50;99.90;;;;;;5073894;28;20069;-66
2023/01/17 08:28:58;;;;;;;22.40;3.30;;;2.50;99.90;;;;;;5074097;28;20155;-66
2023/01/17 08:31:24;;;;;;;27.55;4.90;;;2.60;99.90;;;;;;5053730;28;20400;-66
2023/01/17 08:33:50;;;;;;;35.13;5.60;;;2.60;99.90;;;;;;5053735;28;20024;-65
2023/01/17 08:36:16;;;;;;;19.75;4.25;;;2.60;99.90;;;;;;5053654;28;20038;-65
2023/01/17 08:38:41;;;;;;;48.15;6.30;;;2.50;99.90;;;;;;5054248;28;20025;-66
2023/01/17 08:41:07;;;;;;;29.80;3.28;;;2.60;99.90;;;;;;5062628;28;20324;-66
2023/01/17 08:43:32;;;;;;;27.02;3.10;;;2.70;99.90;;;;;;5072422;28;20028;-66
2023/01/17 08:45:58;;;;;;;27.40;3.00;;;2.60;99.90;;;;;;5073647;28;20395;-66
2023/01/17 08:48:24;;;;;;;23.52;2.42;;;2.70;99.90;;;;;;5071547;28;20028;-66
2023/01/17 08:50:49;;;;;;;26.25;6.00;;;2.70;99.90;;;;;;5073683;28;20029;-66
2023/01/17 08:53:16;;;;;;;25.45;4.78;;;2.70;99.90;;;;;;5071280;28;20024;-66
2023/01/17 08:55:42;;;;;;;29.08;4.70;;;2.70;99.90;;;;;;5059449;28;20056;-66
2023/01/17 08:58:08;;;;;;;26.08;3.80;;;2.80;99.90;;;;;;5072650;28;20476;-66
2023/01/17 09:00:33;;;;;;;31.95;4.22;;;2.80;99.90;;;;;;5070776;28;20476;-66
2023/01/17 09:03:00;;;;;;;24.42;4.47;;;2.90;99.90;;;;;;5072527;28;20031;-66
2023/01/17 09:05:26;;;;;;;15.30;1.83;;;2.80;99.90;;;;;;5073317;28;20387;-66
2023/01/17 09:07:51;;;;;;;14.57;2.90;;;2.80;99.90;;;;;;5073987;28;20111;-66
2023/01/17 09:10:17;;;;;;;12.90;3.47;;;2.80;99.90;;;;;;5073229;28;20071;-66
2023/01/17 09:12:42;;;;;;;20.90;3.28;;;2.80;99.90;;;;;;5073737;28;20016;-66
2023/01/17 09:15:08;;;;;;;20.00;2.47;;;2.80;99.90;;;;;;5073243;28;20021;-67
2023/01/17 09:17:34;;;;;;;18.83;2.88;;;2.80;99.90;;;;;;5073235;28;20027;-66
2023/01/17 09:20:00;;;;;;;8.32;2.92;;;2.80;99.90;;;;;;5073486;28;20066;-66
2023/01/17 09:22:25;;;;;;;6.68;1.98;;;2.80;99.90;;;;;;5073556;28;20476;-66
2023/01/17 09:24:52;;;;;;;31.83;2.80;;;2.80;99.90;;;;;;5073517;28;20020;-66
2023/01/17 09:27:17;;;;;;;16.00;2.50;;;2.90;99.90;;;;;;5071792;28;20027;-67
2023/01/17 09:29:43;;;;;;;24.40;2.67;;;2.80;99.90;;;;;;5073327;28;20033;-66
2023/01/17 09:32:08;;;;;;;29.60;3.20;;;2.90;99.90;;;;;;5073117;28;20422;-67
2023/01/17 09:34:34;;;;;;;18.05;1.65;;;2.90;99.90;;;;;;5073414;28;20021;-66
2023/01/17 09:36:59;;;;;;;10.95;1.60;;;2.80;99.90;;;;;;5073186;28;20027;-66
2023/01/17 09:39:25;;;;;;;3.50;1.20;;;2.90;99.90;;;;;;5073131;28;20031;-66
2023/01/17 09:42:17;;;;;;;15.90;1.98;;;2.90;99.90;;;;;;5073000;28;20483;-66
2023/01/17 09:44:50;;;;;;;16.15;1.58;;;2.90;99.90;;;;;;5073213;28;20407;-66
2023/01/17 09:47:15;;;;;;;6.75;1.52;;;2.90;99.90;;;;;;5071342;28;20032;-67
2023/01/17 09:49:43;;;;;;;14.55;2.60;;;3.00;99.90;;;;;;5069707;28;20123;-66
2023/01/17 09:52:13;;;;;;;12.15;1.60;;;3.10;99.90;;;;;;5072947;28;20017;-66
2023/01/17 09:54:42;;;;;;;5.75;1.05;;;3.10;99.90;;;;;;5073277;28;20034;-66
2023/01/17 09:57:55;;;;;;;9.27;2.00;;;3.30;99.90;;;;;;5071497;28;20099;-66
2023/01/17 10:00:36;;;;;;;12.98;3.17;;;3.40;99.90;;;;;;5059786;28;20079;-67
2023/01/17 10:03:16;;;;;;;9.98;1.25;;;3.50;99.90;;;;;;5072936;28;20028;-66
2023/01/17 10:05:45;;;;;;;5.88;1.08;;;3.70;99.90;;;;;;5073160;28;20030;-66
2023/01/17 10:08:36;;;;;;;6.07;1.23;;;3.70;99.90;;;;;;5073066;28;20074;-66
2023/01/17 10:11:43;;;;;;;7.38;1.35;;;3.70;99.90;;;;;;5070856;28;20029;-66
2023/01/17 10:15:01;;;;;;;5.85;1.30;;;3.50;99.90;;;;;;5052872;28;20021;-66
2023/01/17 10:17:54;;;;;;;8.52;1.83;;;3.40;99.90;;;;;;5055401;28;20389;-66
2023/01/17 10:20:41;;;;;;;5.57;1.25;;;3.30;99.90;;;;;;5056578;28;20071;-66
2023/01/17 10:23:29;;;;;;;9.43;1.25;;;3.30;99.90;;;;;;5070632;28;20040;-66
2023/01/17 10:26:00;;;;;;;61.72;22.92;;;3.30;99.90;;;;;;5076838;28;20075;-67
2023/01/17 10:28:49;;;;;;;41.67;14.35;;;3.40;99.90;;;;;;5062160;28;20037;-66
2023/01/17 10:31:22;;;;;;;21.08;5.25;;;3.50;99.90;;;;;;5056102;28;20036;-66
2023/01/17 10:33:54;;;;;;;45.90;7.45;;;3.60;99.90;;;;;;5056013;28;20443;-66
2023/01/17 10:36:26;;;;;;;9.20;1.08;;;3.80;99.90;;;;;;5056250;28;20053;-66
2023/01/17 10:39:03;;;;;;;2.53;1.20;;;4.00;99.90;;;;;;5073919;28;20028;-66
2023/01/17 10:41:56;;;;;;;8.02;2.58;;;4.00;99.90;;;;;;5076221;28;20028;-66
2023/01/17 10:44:42;;;;;;;6.07;2.08;;;3.90;99.90;;;;;;5069500;28;20442;-66
2023/01/17 10:47:10;;;;;;;6.57;1.35;;;3.90;99.90;;;;;;5075728;28;20523;-67
2023/01/17 10:49:47;;;;;;;6.55;1.38;;;3.90;99.90;;;;;;5075832;28;20448;-66
2023/01/17 10:52:26;;;;;;;8.75;1.23;;;4.00;99.90;;;;;;5075794;28;20070;-66
2023/01/17 10:55:33;;;;;;;9.73;1.15;;;4.10;99.90;;;;;;5075617;28;20103;-66
2023/01/17 10:58:00;;;;;;;11.93;1.73;;;4.20;99.90;;;;;;5075462;28;20380;-66
2023/01/17 11:00:53;;;;;;;13.93;2.60;;;4.30;99.90;;;;;;5075524;28;20023;-67
2023/01/17 11:03:19;;;;;;;21.20;3.53;;;4.40;99.90;;;;;;5075862;28;20032;-66
2023/01/17 11:06:13;;;;;;;14.43;2.63;;;4.60;99.90;;;;;;5075434;28;20028;-66
2023/01/17 11:08:51;;;;;;;19.98;2.90;;;4.80;99.90;;;;;;5075666;28;20032;-66
2023/01/17 11:11:18;;;;;;;3.47;1.25;;;4.90;99.90;;;;;;5075484;28;20028;-66
2023/01/17 11:13:46;;;;;;;7.18;1.27;;;4.90;99.90;;;;;;5075861;28;20028;-66
2023/01/17 11:16:23;;;;;;;14.05;2.17;;;5.00;99.90;;;;;;5074028;28;20017;-66
2023/01/17 11:19:25;;;;;;;11.48;1.92;;;4.90;99.90;;;;;;5075459;28;20017;-67
2023/01/17 11:21:54;;;;;;;15.73;2.47;;;4.90;99.90;;;;;;5075382;28;20031;-66
2023/01/17 11:24:28;;;;;;;20.65;2.30;;;5.00;99.90;;;;;;5075164;28;20025;-67
2023/01/17 11:26:54;;;;;;;25.17;3.55;;;5.00;99.90;;;;;;5075010;28;20387;-66
2023/01/17 11:29:26;;;;;;;17.02;2.67;;;5.00;99.90;;;;;;5074787;28;20020;-66
2023/01/17 11:31:52;;;;;;;10.10;1.95;;;4.90;99.90;;;;;;5075240;28;20074;-66
2023/01/17 11:34:23;;;;;;;11.30;2.20;;;4.90;99.90;;;;;;5075402;28;20456;-66
2023/01/17 11:37:07;;;;;;;9.27;1.50;;;4.90;99.90;;;;;;5075152;28;20023;-66
2023/01/17 11:39:33;;;;;;;10.60;1.70;;;4.90;99.90;;;;;;5074945;28;20017;-66
2023/01/17 11:41:59;;;;;;;17.27;1.65;;;4.90;99.90;;;;;;5074431;28;20082;-66
2023/01/17 11:44:32;;;;;;;5.57;1.65;;;4.90;99.90;;;;;;5074712;28;20038;-66
2023/01/17 11:47:17;;;;;;;11.73;2.00;;;4.90;99.90;;;;;;5074840;28;20040;-66
2023/01/17 11:49:48;;;;;;;8.07;1.17;;;4.90;99.90;;;;;;5074387;28;20400;-66
2023/01/17 11:52:24;;;;;;;21.13;1.80;;;4.90;99.90;;;;;;5074720;28;20103;-67
2023/01/17 11:54:52;;;;;;;10.05;1.45;;;5.00;99.90;;;;;;5074791;28;20052;-66
2023/01/17 11:57:27;;;;;;;8.02;1.40;;;4.90;99.90;;;;;;5074461;28;20551;-66
2023/01/17 12:00:10;;;;;;;11.52;2.08;;;5.00;99.90;;;;;;5074266;28;20021;-67
2023/01/17 12:02:57;;;;;;;16.98;1.35;;;4.90;99.90;;;;;;5074662;28;20025;-66
2023/01/17 12:05:42;;;;;;;9.15;1.52;;;4.80;99.90;;;;;;5074617;28;20025;-67
2023/01/17 12:08:40;;;;;;;14.95;2.00;;;4.80;99.90;;;;;;5074286;28;20391;-67
2023/01/17 12:13:59;;;;;;;14.77;1.90;;;4.80;99.90;;;;;;5069443;28;20032;-66
2023/01/17 12:14:42;;;;;;;10.40;2.30;;;4.80;99.90;;;;;;5073982;28;20059;-66
2023/01/17 12:17:14;;;;;;;11.27;1.80;;;5.00;99.90;;;;;;5074472;28;20042;-66
2023/01/17 12:19:59;;;;;;;10.15;1.20;;;5.00;99.90;;;;;;5073876;28;20447;-66
2023/01/17 12:22:49;;;;;;;6.80;1.23;;;4.80;99.90;;;;;;5074001;28;20099;-66
2023/01/17 12:25:23;;;;;;;6.72;1.00;;;4.80;99.90;;;;;;5073930;28;20021;-66
2023/01/17 12:27:58;;;;;;;9.90;1.25;;;4.60;99.90;;;;;;5074137;28;20033;-66
2023/01/17 12:30:50;;;;;;;11.68;2.03;;;4.60;99.90;;;;;;5073639;28;20060;-67
2023/01/17 12:33:28;;;;;;;4.72;1.30;;;4.60;99.90;;;;;;5074092;28;20028;-67
2023/01/17 12:35:58;;;;;;;8.18;1.25;;;4.70;99.90;;;;;;5073965;28;20020;-67
2023/01/17 12:38:33;;;;;;;8.65;1.63;;;4.60;99.90;;;;;;5074304;28;20025;-66
2023/01/17 12:41:06;;;;;;;5.85;1.95;;;4.60;99.90;;;;;;5073662;28;20400;-67
2023/01/17 12:43:36;;;;;;;8.82;1.20;;;4.70;99.90;;;;;;5074337;28;20028;-66
2023/01/17 12:46:19;;;;;;;5.20;0.82;;;4.80;99.90;;;;;;5073978;28;20013;-66
2023/01/17 12:48:51;;;;;;;8.25;1.88;;;4.90;99.90;;;;;;5073961;28;20403;-67
2023/01/17 12:51:32;;;;;;;7.13;0.93;;;4.90;99.90;;;;;;5073482;28;20028;-67
2023/01/17 12:54:18;;;;;;;13.73;1.40;;;4.80;99.90;;;;;;5074056;28;20021;-67
2023/01/17 12:56:57;;;;;;;10.55;1.27;;;4.60;99.90;;;;;;5073915;28;20354;-66
2023/01/17 12:59:58;;;;;;;4.57;1.02;;;4.30;99.90;;;;;;5073415;28;20021;-66
2023/01/17 13:02:40;;;;;;;15.20;1.58;;;4.10;99.90;;;;;;5053667;28;20110;-66
2023/01/17 13:05:16;;;;;;;11.90;1.42;;;3.90;99.90;;;;;;5063511;28;20099;-66
2023/01/17 13:07:49;;;;;;;6.90;1.05;;;3.70;99.90;;;;;;5073078;28;20024;-67
2023/01/17 13:10:31;;;;;;;15.15;1.38;;;3.70;99.90;;;;;;5073137;28;20073;-66
2023/01/17 13:13:03;;;;;;;8.73;1.05;;;3.60;99.90;;;;;;5061612;28;20028;-66
2023/01/17 13:15:36;;;;;;;18.10;7.22;;;3.60;99.90;;;;;;5073096;28;20388;-67
2023/01/17 13:18:09;;;;;;;7.38;3.55;;;3.30;99.90;;;;;;5073568;28;20070;-67
2023/01/17 13:20:49;;;;;;;12.90;4.90;;;3.10;99.90;;;;;;5073096;28;20047;-66
2023/01/17 13:24:00;;;;;;;10.55;2.53;;;2.80;99.90;;;;;;5073541;28;20075;-67
2023/01/17 13:26:53;;;;;;;1.58;0.70;;;2.60;99.90;;;;;;5052864;28;20075;-67
2023/01/17 13:29:55;;;;;;;4.93;1.07;;;2.40;99.90;;;;;;5073292;28;20028;-67
2023/01/17 13:32:24;;;;;;;7.22;0.70;;;2.40;99.90;;;;;;5073361;28;20025;-67
2023/01/17 13:35:14;;;;;;;1.42;0.65;;;2.40;99.90;;;;;;5073141;28;20464;-67
2023/01/17 13:38:39;;;;;;;4.97;1.10;;;2.40;99.90;;;;;;5073425;28;20575;-67
2023/01/17 13:41:33;;;;;;;4.32;0.73;;;2.40;99.90;;;;;;5011429;28;20160;-66
2023/01/17 13:47:05;;;;;;;4.38;1.23;;;2.50;99.90;;;;;;5073395;28;20055;-67
2023/01/17 13:49:55;;;;;;;1.58;0.70;;;2.50;99.90;;;;;;5072731;28;20078;-67
2023/01/17 13:52:21;;;;;;;5.55;1.35;;;2.50;99.90;;;;;;5071681;28;20028;-67
2023/01/17 13:55:02;;;;;;;5.13;1.15;;;2.50;99.90;;;;;;5076899;28;20021;-67
2023/01/17 13:57:35;;;;;;;5.00;0.90;;;2.60;99.90;;;;;;5077036;28;20135;-67
2023/01/17 14:00:15;;;;;;;3.42;0.88;;;2.60;99.90;;;;;;5077037;28;20021;-67
2023/01/17 14:02:41;;;;;;;9.35;2.45;;;2.60;99.90;;;;;;5076759;28;20078;-67
2023/01/17 14:05:11;;;;;;;10.95;3.15;;;2.70;99.90;;;;;;5077025;28;20104;-67
2023/01/17 14:08:04;;;;;;;9.90;1.05;;;2.70;99.90;;;;;;5076509;28;20032;-67
2023/01/17 14:10:49;;;;;;;17.48;0.93;;;2.60;99.90;;;;;;5076217;28;20028;-67
2023/01/17 14:13:27;;;;;;;4.35;1.08;;;2.60;99.90;;;;;;5076829;28;20439;-67
2023/01/17 14:15:53;;;;;;;9.50;1.13;;;2.60;99.90;;;;;;5076544;28;20556;-67
2023/01/17 14:18:51;;;;;;;12.35;1.20;;;2.60;99.90;;;;;;5076342;28;20024;-67
2023/01/17 14:21:25;;;;;;;6.78;1.10;;;2.70;99.90;;;;;;5042990;28;20040;-67
2023/01/17 14:24:02;;;;;;;4.00;0.95;;;2.60;99.90;;;;;;5065535;28;20020;-67
2023/01/17 14:26:40;;;;;;;2.72;0.50;;;2.30;99.90;;;;;;5069761;28;20480;-67
2023/01/17 14:29:59;;;;;;;1.50;0.63;;;2.00;99.90;;;;;;5070684;28;20032;-67
2023/01/17 14:32:31;;;;;;;3.65;1.13;;;1.70;99.90;;;;;;5048896;28;20072;-66
2023/01/17 14:34:57;;;;;;;6.15;0.95;;;1.50;99.90;;;;;;5065675;28;20102;-66
2023/01/17 14:37:46;;;;;;;9.65;1.13;;;1.40;99.90;;;;;;5070288;28;20025;-67
2023/01/17 14:40:18;;;;;;;4.68;1.42;;;1.30;99.90;;;;;;5068615;28;20043;-67